sensor_id;sensor_type;location;lat;lon;timestamp;pressure;altitude;pressure_sealevel;temperature;humidity
20897;BME280;10608;42.600;23.398;2023-07-20T00:00:01;80462.31;;;-138.15;50.91
20897;BME280;10608;42.600;23.398;2023-07-20T00:02:26;80515.94;;;-138.15;50.79
20897;BME280;10608;42.600;23.398;2023-07-20T00:04:51;80523.88;;;-138.15;51.13
20897;BME280;10608;42.600;23.398;2023-07-20T00:07:17;80537.78;;;-138.15;51.48
20897;BME280;10608;42.600;23.398;2023-07-20T00:09:42;80571.53;;;-138.15;51.39
20897;BME280;10608;42.600;23.398;2023-07-20T00:12:08;80601.34;;;-138.15;51.66
20897;BME280;10608;42.600;23.398;2023-07-20T00:14:33;80660.94;;;-138.15;54.01
20897;BME280;10608;42.600;23.398;2023-07-20T00:16:59;80760.25;;;-138.15;57.82
20897;BME280;10608;42.600;23.398;2023-07-20T00:19:28;80992.66;;;-138.15;57.56
20897;BME280;10608;42.600;23.398;2023-07-20T00:21:54;80742.38;;;-138.15;56.35
20897;BME280;10608;42.600;23.398;2023-07-20T00:24:21;80710.59;;;-138.15;57.12
20897;BME280;10608;42.600;23.398;2023-07-20T00:26:47;80716.53;;;-138.15;55.26
20897;BME280;10608;42.600;23.398;2023-07-20T00:29:12;80768.19;;;-138.15;54.80
20897;BME280;10608;42.600;23.398;2023-07-20T00:31:37;80758.25;;;-138.15;54.13
20897;BME280;10608;42.600;23.398;2023-07-20T00:34:03;80750.31;;;-138.15;53.99
20897;BME280;10608;42.600;23.398;2023-07-20T00:36:29;80774.16;;;-138.15;54.23
20897;BME280;10608;42.600;23.398;2023-07-20T00:38:54;80758.25;;;-138.15;53.82
20897;BME280;10608;42.600;23.398;2023-07-20T00:41:20;80875.47;;;-138.15;53.53
20897;BME280;10608;42.600;23.398;2023-07-20T00:43:45;80750.31;;;-138.15;53.41
20897;BME280;10608;42.600;23.398;2023-07-20T00:46:11;80690.72;;;-138.15;52.64
20897;BME280;10608;42.600;23.398;2023-07-20T00:48:37;80662.91;;;-138.15;52.37
20897;BME280;10608;42.600;23.398;2023-07-20T00:51:03;80706.63;;;-138.15;52.25
20897;BME280;10608;42.600;23.398;2023-07-20T00:53:29;80710.59;;;-138.15;53.13
20897;BME280;10608;42.600;23.398;2023-07-20T00:55:55;80790.03;;;-138.15;54.29
20897;BME280;10608;42.600;23.398;2023-07-20T00:58:20;80821.81;;;-138.15;57.53
20897;BME280;10608;42.600;23.398;2023-07-20T01:00:46;80899.28;;;-138.15;59.13
20897;BME280;10608;42.600;23.398;2023-07-20T01:03:12;80944.97;;;-138.15;59.44
20897;BME280;10608;42.600;23.398;2023-07-20T01:14:11;80962.88;;;-138.15;61.18
20897;BME280;10608;42.600;23.398;2023-07-20T01:16:37;81004.56;;;-138.15;62.02
20897;BME280;10608;42.600;23.398;2023-07-20T01:19:02;80998.63;;;-138.15;62.24
20897;BME280;10608;42.600;23.398;2023-07-20T01:21:43;80958.88;;;-138.15;63.08
20897;BME280;10608;42.600;23.398;2023-07-20T01:24:39;81030.41;;;-138.15;63.46
20897;BME280;10608;42.600;23.398;2023-07-20T01:27:25;81020.47;;;-138.15;63.30
20897;BME280;10608;42.600;23.398;2023-07-20T01:32:54;80889.38;;;-138.15;64.01
20897;BME280;10608;42.600;23.398;2023-07-20T01:35:23;81050.28;;;-138.15;64.22
20897;BME280;10608;42.600;23.398;2023-07-20T01:37:52;81040.34;;;-138.15;63.69
20897;BME280;10608;42.600;23.398;2023-07-20T01:40:19;81028.41;;;-138.15;63.54
20897;BME280;10608;42.600;23.398;2023-07-20T01:42:47;81024.44;;;-138.15;64.16
20897;BME280;10608;42.600;23.398;2023-07-20T01:45:12;81036.38;;;-138.15;64.04
20897;BME280;10608;42.600;23.398;2023-07-20T01:47:37;81032.38;;;-138.15;64.17
20897;BME280;10608;42.600;23.398;2023-07-20T01:50:03;81084.03;;;-138.15;64.64
20897;BME280;10608;42.600;23.398;2023-07-20T01:52:29;81088.00;;;-138.15;65.23
20897;BME280;10608;42.600;23.398;2023-07-20T01:54:54;81030.41;;;-138.15;65.09
20897;BME280;10608;42.600;23.398;2023-07-20T01:57:20;81024.44;;;-138.15;65.87
20897;BME280;10608;42.600;23.398;2023-07-20T01:59:45;81099.94;;;-138.15;65.82
20897;BME280;10608;42.600;23.398;2023-07-20T02:02:11;81088.00;;;-138.15;65.09
20897;BME280;10608;42.600;23.398;2023-07-20T02:04:36;81149.59;;;-138.15;64.83
20897;BME280;10608;42.600;23.398;2023-07-20T02:07:02;81177.41;;;-138.15;65.00
20897;BME280;10608;42.600;23.398;2023-07-20T02:09:27;81147.59;;;-138.15;65.64
20897;BME280;10608;42.600;23.398;2023-07-20T02:11:52;81078.06;;;-138.15;65.10
20897;BME280;10608;42.600;23.398;2023-07-20T02:14:18;81155.56;;;-138.15;66.36
20897;BME280;10608;42.600;23.398;2023-07-20T02:16:43;81159.53;;;-138.15;66.18
20897;BME280;10608;42.600;23.398;2023-07-20T02:19:09;81139.66;;;-138.15;66.30
20897;BME280;10608;42.600;23.398;2023-07-20T02:21:34;81231.03;;;-138.15;66.88
20897;BME280;10608;42.600;23.398;2023-07-20T02:23:59;81195.28;;;-138.15;66.56
20897;BME280;10608;42.600;23.398;2023-07-20T02:26:25;81207.19;;;-138.15;66.81
20897;BME280;10608;42.600;23.398;2023-07-20T02:28:50;81221.09;;;-138.15;67.43
20897;BME280;10608;42.600;23.398;2023-07-20T02:31:16;81225.09;;;-138.15;67.32
20897;BME280;10608;42.600;23.398;2023-07-20T02:33:41;81264.81;;;-138.15;67.35
20897;BME280;10608;42.600;23.398;2023-07-20T02:36:07;81246.94;;;-138.15;67.81
20897;BME280;10608;42.600;23.398;2023-07-20T02:38:32;81246.94;;;-138.15;66.89
20897;BME280;10608;42.600;23.398;2023-07-20T02:40:58;81409.84;;;-138.15;67.66
20897;BME280;10608;42.600;23.398;2023-07-20T02:43:23;81254.88;;;-138.15;68.12
20897;BME280;10608;42.600;23.398;2023-07-20T02:45:50;81326.41;;;-138.15;68.63
20897;BME280;10608;42.600;23.398;2023-07-20T02:48:15;81169.47;;;-138.15;68.41
20897;BME280;10608;42.600;23.398;2023-07-20T02:50:41;81282.69;;;-138.15;68.94
20897;BME280;10608;42.600;23.398;2023-07-20T02:53:06;81336.34;;;-138.15;68.79
20897;BME280;10608;42.600;23.398;2023-07-20T02:55:32;81322.44;;;-138.15;67.71
20897;BME280;10608;42.600;23.398;2023-07-20T02:57:57;81320.44;;;-138.15;67.65
20897;BME280;10608;42.600;23.398;2023-07-20T03:00:22;81312.50;;;-138.15;67.53
20897;BME280;10608;42.600;23.398;2023-07-20T03:02:48;81266.81;;;-138.15;66.88
20897;BME280;10608;42.600;23.398;2023-07-20T03:05:14;81342.28;;;-138.15;66.78
20897;BME280;10608;42.600;23.398;2023-07-20T03:07:41;81292.63;;;-138.15;67.03
20897;BME280;10608;42.600;23.398;2023-07-20T03:10:09;81246.94;;;-138.15;67.14
20897;BME280;10608;42.600;23.398;2023-07-20T03:12:35;81308.53;;;-138.15;67.77
20897;BME280;10608;42.600;23.398;2023-07-20T03:15:02;81324.41;;;-138.15;67.73
20897;BME280;10608;42.600;23.398;2023-07-20T03:17:28;81326.41;;;-138.15;68.25
20897;BME280;10608;42.600;23.398;2023-07-20T03:19:53;81322.44;;;-138.15;68.25
20897;BME280;10608;42.600;23.398;2023-07-20T03:22:19;81316.47;;;-138.15;68.71
20897;BME280;10608;42.600;23.398;2023-07-20T03:24:44;81302.56;;;-138.15;67.99
20897;BME280;10608;42.600;23.398;2023-07-20T03:27:09;81258.84;;;-138.15;67.26
20897;BME280;10608;42.600;23.398;2023-07-20T03:29:35;81237.00;;;-138.15;65.88
20897;BME280;10608;42.600;23.398;2023-07-20T03:32:00;81193.28;;;-138.15;66.22
20897;BME280;10608;42.600;23.398;2023-07-20T03:34:26;81078.06;;;-138.15;65.00
20897;BME280;10608;42.600;23.398;2023-07-20T03:36:51;81004.56;;;-138.15;63.88
20897;BME280;10608;42.600;23.398;2023-07-20T03:39:16;80976.75;;;-138.15;61.76
20897;BME280;10608;42.600;23.398;2023-07-20T03:41:42;80762.22;;;-138.15;60.79
20897;BME280;10608;42.600;23.398;2023-07-20T03:44:08;80877.44;;;-138.15;58.28
20897;BME280;10608;42.600;23.398;2023-07-20T03:46:33;80780.09;;;-138.15;57.09
20897;BME280;10608;42.600;23.398;2023-07-20T03:48:59;80678.81;;;-138.15;56.72
20897;BME280;10608;42.600;23.398;2023-07-20T03:51:26;80589.44;;;-138.15;55.82
20897;BME280;10608;42.600;23.398;2023-07-20T03:53:51;80396.75;;;-138.15;53.54
20897;BME280;10608;42.600;23.398;2023-07-20T03:56:16;80325.25;;;-138.15;51.50
20897;BME280;10608;42.600;23.398;2023-07-20T03:58:42;80221.97;;;-138.15;50.67
20897;BME280;10608;42.600;23.398;2023-07-20T04:01:07;80142.53;;;-138.15;49.23
20897;BME280;10608;42.600;23.398;2023-07-20T04:03:33;80118.69;;;-138.15;47.50
20897;BME280;10608;42.600;23.398;2023-07-20T04:05:58;80043.22;;;-138.15;47.22
20897;BME280;10608;42.600;23.398;2023-07-20T04:08:24;79892.31;;;-138.15;45.16
20897;BME280;10608;42.600;23.398;2023-07-20T04:10:50;79735.41;;;-138.15;44.29
20897;BME280;10608;42.600;23.398;2023-07-20T04:13:15;79566.63;;;-138.15;42.85
20897;BME280;10608;42.600;23.398;2023-07-20T04:15:42;79360.09;;;-138.15;41.32
20897;BME280;10608;42.600;23.398;2023-07-20T04:18:07;79296.56;;;-138.15;40.70
20897;BME280;10608;42.600;23.398;2023-07-20T04:20:33;79177.44;;;-138.15;40.21
20897;BME280;10608;42.600;23.398;2023-07-20T04:22:58;78998.72;;;-138.15;39.42
20897;BME280;10608;42.600;23.398;2023-07-20T04:25:24;78716.78;;;-138.15;38.11
20897;BME280;10608;42.600;23.398;2023-07-20T04:27:49;78559.97;;;-138.15;36.85
20897;BME280;10608;42.600;23.398;2023-07-20T04:30:17;78387.25;;;-138.15;36.44
20897;BME280;10608;42.600;23.398;2023-07-20T04:32:44;78321.72;;;-138.15;35.07
20897;BME280;10608;42.600;23.398;2023-07-20T04:38:02;78168.88;;;-138.15;34.65
20897;BME280;10608;42.600;23.398;2023-07-20T04:40:27;77974.34;;;-138.15;34.02
20897;BME280;10608;42.600;23.398;2023-07-20T04:42:53;77680.56;;;-138.15;33.09
20897;BME280;10608;42.600;23.398;2023-07-20T04:45:18;77394.75;;;-138.15;32.07
20897;BME280;10608;42.600;23.398;2023-07-20T04:47:44;77031.59;;;-138.15;30.87
20897;BME280;10608;42.600;23.398;2023-07-20T04:50:09;76581.13;;;-138.15;30.30
20897;BME280;10608;42.600;23.398;2023-07-20T04:52:35;76426.34;;;-138.15;29.21
20897;BME280;10608;42.600;23.398;2023-07-20T04:55:00;76168.41;;;-138.15;28.60
20897;BME280;10608;42.600;23.398;2023-07-20T04:57:26;76120.78;;;-138.15;28.10
20897;BME280;10608;42.600;23.398;2023-07-20T04:59:51;76200.16;;;-138.15;28.33
20897;BME280;10608;42.600;23.398;2023-07-20T05:02:17;75987.88;;;-138.15;28.06
20897;BME280;10608;42.600;23.398;2023-07-20T05:04:42;76025.56;;;-138.15;27.71
20897;BME280;10608;42.600;23.398;2023-07-20T05:07:08;75940.25;;;-138.15;27.41
20897;BME280;10608;42.600;23.398;2023-07-20T05:09:33;75870.81;;;-138.15;27.27
20897;BME280;10608;42.600;23.398;2023-07-20T05:11:59;76043.41;;;-138.15;27.50
20897;BME280;10608;42.600;23.398;2023-07-20T05:14:24;75724.00;;;-138.15;27.38
20897;BME280;10608;42.600;23.398;2023-07-20T05:16:49;75587.13;;;-138.15;26.67
20897;BME280;10608;42.600;23.398;2023-07-20T05:19:15;75448.25;;;-138.15;26.22
20897;BME280;10608;42.600;23.398;2023-07-20T05:21:40;75382.78;;;-138.15;26.36
20897;BME280;10608;42.600;23.398;2023-07-20T05:24:06;75158.63;;;-138.15;25.42
20897;BME280;10608;42.600;23.398;2023-07-20T05:26:31;75142.75;;;-138.15;25.76
20897;BME280;10608;42.600;23.398;2023-07-20T05:28:58;75150.69;;;-138.15;25.68
20897;BME280;10608;42.600;23.398;2023-07-20T05:31:24;75497.84;;;-138.15;26.38
20897;BME280;10608;42.600;23.398;2023-07-20T05:33:49;75368.91;;;-138.15;26.75
20897;BME280;10608;42.600;23.398;2023-07-20T05:36:27;74916.66;;;-138.15;25.65
20897;BME280;10608;42.600;23.398;2023-07-20T05:38:52;74755.97;;;-138.15;24.90
20897;BME280;10608;42.600;23.398;2023-07-20T05:41:18;74878.97;;;-138.15;24.70
20897;BME280;10608;42.600;23.398;2023-07-20T05:43:43;75019.78;;;-138.15;25.32
20897;BME280;10608;42.600;23.398;2023-07-20T05:46:08;75043.59;;;-138.15;24.87
20897;BME280;10608;42.600;23.398;2023-07-20T05:48:35;74976.16;;;-138.15;25.21
20897;BME280;10608;42.600;23.398;2023-07-20T05:51:01;74557.66;;;-138.15;24.37
20897;BME280;10608;42.600;23.398;2023-07-20T05:53:26;74163.00;;;-138.15;22.88
20897;BME280;10608;42.600;23.398;2023-07-20T05:55:53;73744.59;;;-138.15;22.71
20897;BME280;10608;42.600;23.398;2023-07-20T05:58:18;73679.16;;;-138.15;22.61
20897;BME280;10608;42.600;23.398;2023-07-20T06:00:44;73191.41;;;-138.15;22.97
20897;BME280;10608;42.600;23.398;2023-07-20T06:03:12;72959.44;;;-138.15;22.27
20897;BME280;10608;42.600;23.398;2023-07-20T06:05:37;72515.38;;;-138.15;21.45
20897;BME280;10608;42.600;23.398;2023-07-20T06:08:03;71972.28;;;-138.15;20.97
20897;BME280;10608;42.600;23.398;2023-07-20T06:10:28;72364.72;;;-138.15;21.07
20897;BME280;10608;42.600;23.398;2023-07-20T06:12:54;72099.13;;;-138.15;20.77
20897;BME280;10608;42.600;23.398;2023-07-20T06:15:28;71762.19;;;-138.15;20.79
20897;BME280;10608;42.600;23.398;2023-07-20T06:17:55;71128.03;;;-138.15;19.80
20897;BME280;10608;42.600;23.398;2023-07-20T06:20:22;70581.13;;;-138.15;18.82
20897;BME280;10608;42.600;23.398;2023-07-20T06:22:47;70026.41;;;-138.15;19.24
20897;BME280;10608;42.600;23.398;2023-07-20T06:25:13;69659.94;;;-138.15;18.50
20897;BME280;10608;42.600;23.398;2023-07-20T06:27:38;69657.94;;;-138.15;18.39
20897;BME280;10608;42.600;23.398;2023-07-20T06:30:04;69602.47;;;-138.15;19.06
20897;BME280;10608;42.600;23.398;2023-07-20T06:32:29;70002.63;;;-138.15;18.93
20897;BME280;10608;42.600;23.398;2023-07-20T06:34:55;70159.13;;;-138.15;19.52
20897;BME280;10608;42.600;23.398;2023-07-20T06:37:20;69832.25;;;-138.15;18.91
20897;BME280;10608;42.600;23.398;2023-07-20T06:39:46;69596.53;;;-138.15;19.40
20897;BME280;10608;42.600;23.398;2023-07-20T06:42:11;69372.72;;;-138.15;18.46
20897;BME280;10608;42.600;23.398;2023-07-20T06:44:36;70222.53;;;-138.15;18.03
20897;BME280;10608;42.600;23.398;2023-07-20T06:47:02;70486.03;;;-138.15;19.53
20897;BME280;10608;42.600;23.398;2023-07-20T06:49:28;70474.16;;;-138.15;18.70
20897;BME280;10608;42.600;23.398;2023-07-20T06:51:54;70279.97;;;-138.15;18.78
20897;BME280;10608;42.600;23.398;2023-07-20T06:54:19;69735.19;;;-138.15;19.56
20897;BME280;10608;42.600;23.398;2023-07-20T06:56:45;71145.84;;;-138.15;19.62
20897;BME280;10608;42.600;23.398;2023-07-20T06:59:10;71861.28;;;-138.15;20.34
20897;BME280;10608;42.600;23.398;2023-07-20T07:01:35;72156.59;;;-138.15;20.57
20897;BME280;10608;42.600;23.398;2023-07-20T07:04:01;71365.81;;;-138.15;19.84
20897;BME280;10608;42.600;23.398;2023-07-20T07:06:26;72533.22;;;-138.15;20.99
20897;BME280;10608;42.600;23.398;2023-07-20T07:08:53;72150.66;;;-138.15;20.66
20897;BME280;10608;42.600;23.398;2023-07-20T07:11:18;72055.50;;;-138.15;20.33
20897;BME280;10608;42.600;23.398;2023-07-20T07:13:44;71754.25;;;-138.15;20.48
20897;BME280;10608;42.600;23.398;2023-07-20T07:16:12;73010.97;;;-138.15;21.77
20897;BME280;10608;42.600;23.398;2023-07-20T07:18:37;73780.28;;;-138.15;22.58
20897;BME280;10608;42.600;23.398;2023-07-20T07:21:05;74557.66;;;-138.15;23.75
20897;BME280;10608;42.600;23.398;2023-07-20T07:23:30;75436.34;;;-138.15;25.10
20897;BME280;10608;42.600;23.398;2023-07-20T07:25:56;75485.94;;;-138.15;26.53
20897;BME280;10608;42.600;23.398;2023-07-20T07:28:21;74886.88;;;-138.15;24.51
20897;BME280;10608;42.600;23.398;2023-07-20T07:30:47;73808.03;;;-138.15;23.22
20897;BME280;10608;42.600;23.398;2023-07-20T07:33:12;73468.97;;;-138.15;22.58
20897;BME280;10608;42.600;23.398;2023-07-20T07:35:38;73653.38;;;-138.15;22.42
20897;BME280;10608;42.600;23.398;2023-07-20T07:38:04;72638.28;;;-138.15;22.03
20897;BME280;10608;42.600;23.398;2023-07-20T07:40:31;71246.91;;;-138.15;21.45
20897;BME280;10608;42.600;23.398;2023-07-20T07:42:57;70688.13;;;-138.15;19.76
20897;BME280;10608;42.600;23.398;2023-07-20T07:45:22;71191.44;;;-138.15;20.01
20897;BME280;10608;42.600;23.398;2023-07-20T07:47:47;71128.03;;;-138.15;19.72
20897;BME280;10608;42.600;23.398;2023-07-20T07:50:13;70386.97;;;-138.15;20.23
20897;BME280;10608;42.600;23.398;2023-07-20T07:52:38;69505.41;;;-138.15;19.83
20897;BME280;10608;42.600;23.398;2023-07-20T07:55:04;69208.31;;;-138.15;19.05
20897;BME280;10608;42.600;23.398;2023-07-20T07:57:30;68925.09;;;-138.15;18.00
20897;BME280;10608;42.600;23.398;2023-07-20T07:59:55;68144.84;;;-138.15;18.42
20897;BME280;10608;42.600;23.398;2023-07-20T08:02:21;68032.00;;;-138.15;18.43
20897;BME280;10608;42.600;23.398;2023-07-20T08:04:47;68291.38;;;-138.15;18.61
20897;BME280;10608;42.600;23.398;2023-07-20T08:07:12;68647.84;;;-138.15;18.21
20897;BME280;10608;42.600;23.398;2023-07-20T08:09:37;69119.19;;;-138.15;19.21
20897;BME280;10608;42.600;23.398;2023-07-20T08:12:03;69834.25;;;-138.15;19.72
20897;BME280;10608;42.600;23.398;2023-07-20T08:14:29;68998.38;;;-138.15;19.21
20897;BME280;10608;42.600;23.398;2023-07-20T08:16:54;69570.78;;;-138.15;19.26
20897;BME280;10608;42.600;23.398;2023-07-20T08:19:20;69883.78;;;-138.15;19.61
20897;BME280;10608;42.600;23.398;2023-07-20T08:21:45;70597.00;;;-138.15;20.02
20897;BME280;10608;42.600;23.398;2023-07-20T08:24:10;69663.88;;;-138.15;20.41
20897;BME280;10608;42.600;23.398;2023-07-20T08:26:36;69537.13;;;-138.15;19.37
20897;BME280;10608;42.600;23.398;2023-07-20T08:29:01;68354.75;;;-138.15;19.81
20897;BME280;10608;42.600;23.398;2023-07-20T08:31:27;67535.03;;;-138.15;19.60
20897;BME280;10608;42.600;23.398;2023-07-20T08:33:53;67572.63;;;-138.15;18.78
20897;BME280;10608;42.600;23.398;2023-07-20T08:36:19;68152.78;;;-138.15;18.96
20897;BME280;10608;42.600;23.398;2023-07-20T08:38:44;68744.88;;;-138.15;19.39
20897;BME280;10608;42.600;23.398;2023-07-20T08:41:10;69459.88;;;-138.15;20.09
20897;BME280;10608;42.600;23.398;2023-07-20T08:43:37;69959.06;;;-138.15;20.39
20897;BME280;10608;42.600;23.398;2023-07-20T08:46:03;70214.59;;;-138.15;20.31
20897;BME280;10608;42.600;23.398;2023-07-20T08:48:30;70137.34;;;-138.15;20.39
20897;BME280;10608;42.600;23.398;2023-07-20T08:50:56;70184.88;;;-138.15;19.49
20897;BME280;10608;42.600;23.398;2023-07-20T08:53:23;70565.28;;;-138.15;20.48
20897;BME280;10608;42.600;23.398;2023-07-20T08:55:51;70390.94;;;-138.15;20.09
20897;BME280;10608;42.600;23.398;2023-07-20T08:58:18;70478.09;;;-138.15;19.54
20897;BME280;10608;42.600;23.398;2023-07-20T09:00:44;70721.81;;;-138.15;20.04
20897;BME280;10608;42.600;23.398;2023-07-20T09:03:11;71433.19;;;-138.15;19.95
20897;BME280;10608;42.600;23.398;2023-07-20T09:05:37;72870.22;;;-138.15;20.70
20897;BME280;10608;42.600;23.398;2023-07-20T09:08:04;72315.16;;;-138.15;20.88
20897;BME280;10608;42.600;23.398;2023-07-20T09:10:30;71556.06;;;-138.15;20.26
20897;BME280;10608;42.600;23.398;2023-07-20T09:12:56;70822.88;;;-138.15;19.36
20897;BME280;10608;42.600;23.398;2023-07-20T09:15:22;71308.34;;;-138.15;19.46
20897;BME280;10608;42.600;23.398;2023-07-20T09:17:49;72388.50;;;-138.15;20.06
20897;BME280;10608;42.600;23.398;2023-07-20T09:20:16;71787.94;;;-138.15;20.01
20897;BME280;10608;42.600;23.398;2023-07-20T09:22:43;71258.81;;;-138.15;19.61
20897;BME280;10608;42.600;23.398;2023-07-20T09:25:17;70925.91;;;-138.15;19.29
20897;BME280;10608;42.600;23.398;2023-07-20T09:27:44;70781.25;;;-138.15;18.91
20897;BME280;10608;42.600;23.398;2023-07-20T09:30:11;71918.75;;;-138.15;19.55
20897;BME280;10608;42.600;23.398;2023-07-20T09:32:43;71982.19;;;-138.15;19.84
20897;BME280;10608;42.600;23.398;2023-07-20T09:35:15;71674.97;;;-138.15;20.46
20897;BME280;10608;42.600;23.398;2023-07-20T09:37:46;71163.69;;;-138.15;19.81
20897;BME280;10608;42.600;23.398;2023-07-20T09:40:15;70682.19;;;-138.15;19.40
20897;BME280;10608;42.600;23.398;2023-07-20T09:42:40;69836.22;;;-138.15;18.66
20897;BME280;10608;42.600;23.398;2023-07-20T09:45:09;69348.94;;;-138.15;18.70
20897;BME280;10608;42.600;23.398;2023-07-20T09:47:38;70721.81;;;-138.15;18.40
20897;BME280;10608;42.600;23.398;2023-07-20T09:50:05;70787.19;;;-138.15;18.55
20897;BME280;10608;42.600;23.398;2023-07-20T09:52:40;70947.69;;;-138.15;18.76
20897;BME280;10608;42.600;23.398;2023-07-20T09:55:10;70422.63;;;-138.15;19.11
20897;BME280;10608;42.600;23.398;2023-07-20T09:57:37;70612.84;;;-138.15;18.36
20897;BME280;10608;42.600;23.398;2023-07-20T10:00:05;70192.81;;;-138.15;18.73
20897;BME280;10608;42.600;23.398;2023-07-20T10:02:44;70248.28;;;-138.15;18.93
20897;BME280;10608;42.600;23.398;2023-07-20T10:05:12;71252.88;;;-138.15;19.17
20897;BME280;10608;42.600;23.398;2023-07-20T10:07:45;72118.94;;;-138.15;19.46
20897;BME280;10608;42.600;23.398;2023-07-20T10:10:14;72818.69;;;-138.15;20.85
20897;BME280;10608;42.600;23.398;2023-07-20T10:12:40;73149.75;;;-138.15;21.45
20897;BME280;10608;42.600;23.398;2023-07-20T10:15:11;73516.56;;;-138.15;21.29
20897;BME280;10608;42.600;23.398;2023-07-20T10:18:12;74410.88;;;-138.15;22.52
20897;BME280;10608;42.600;23.398;2023-07-20T10:20:40;74605.25;;;-138.15;22.81
20897;BME280;10608;42.600;23.398;2023-07-20T10:23:09;74690.53;;;-138.15;22.77
20897;BME280;10608;42.600;23.398;2023-07-20T10:25:35;74773.84;;;-138.15;22.70
20897;BME280;10608;42.600;23.398;2023-07-20T10:28:07;74781.78;;;-138.15;23.36
20897;BME280;10608;42.600;23.398;2023-07-20T10:30:36;74529.88;;;-138.15;22.17
20897;BME280;10608;42.600;23.398;2023-07-20T10:33:05;74462.44;;;-138.15;22.17
20897;BME280;10608;42.600;23.398;2023-07-20T10:35:50;74474.34;;;-138.15;22.65
20897;BME280;10608;42.600;23.398;2023-07-20T10:38:16;74567.56;;;-138.15;22.47
20897;BME280;10608;42.600;23.398;2023-07-20T10:40:41;74426.75;;;-138.15;22.39
20897;BME280;10608;42.600;23.398;2023-07-20T10:43:08;74478.31;;;-138.15;22.92
20897;BME280;10608;42.600;23.398;2023-07-20T10:45:40;74341.47;;;-138.15;22.08
20897;BME280;10608;42.600;23.398;2023-07-20T10:48:13;74746.06;;;-138.15;23.31
20897;BME280;10608;42.600;23.398;2023-07-20T10:50:40;74678.63;;;-138.15;23.45
20897;BME280;10608;42.600;23.398;2023-07-20T10:53:14;74486.25;;;-138.15;22.24
20897;BME280;10608;42.600;23.398;2023-07-20T10:55:41;74510.06;;;-138.15;22.32
20897;BME280;10608;42.600;23.398;2023-07-20T10:58:12;74551.69;;;-138.15;22.99
20897;BME280;10608;42.600;23.398;2023-07-20T11:01:03;74424.78;;;-138.15;21.49
20897;BME280;10608;42.600;23.398;2023-07-20T11:03:34;74708.38;;;-138.15;22.83
20897;BME280;10608;42.600;23.398;2023-07-20T11:08:48;74932.50;;;-138.15;22.42
20897;BME280;10608;42.600;23.398;2023-07-20T11:11:27;75176.50;;;-138.15;22.48
20897;BME280;10608;42.600;23.398;2023-07-20T11:16:48;75339.16;;;-138.15;23.82
20897;BME280;10608;42.600;23.398;2023-07-20T11:21:52;75152.69;;;-138.15;22.23
20897;BME280;10608;42.600;23.398;2023-07-20T11:24:18;75144.75;;;-138.15;23.32
20897;BME280;10608;42.600;23.398;2023-07-20T11:26:47;74936.47;;;-138.15;24.03
20897;BME280;10608;42.600;23.398;2023-07-20T11:29:15;74757.97;;;-138.15;22.82
20897;BME280;10608;42.600;23.398;2023-07-20T11:31:42;74789.69;;;-138.15;22.45
20897;BME280;10608;42.600;23.398;2023-07-20T11:34:11;74797.63;;;-138.15;23.54
20897;BME280;10608;42.600;23.398;2023-07-20T11:36:41;74646.91;;;-138.15;23.85
20897;BME280;10608;42.600;23.398;2023-07-20T11:39:09;74748.06;;;-138.15;23.45
20897;BME280;10608;42.600;23.398;2023-07-20T11:41:34;74997.97;;;-138.15;23.00
20897;BME280;10608;42.600;23.398;2023-07-20T11:44:00;75027.72;;;-138.15;23.87
20897;BME280;10608;42.600;23.398;2023-07-20T11:46:27;74964.25;;;-138.15;22.70
20897;BME280;10608;42.600;23.398;2023-07-20T11:49:00;74958.28;;;-138.15;22.84
20897;BME280;10608;42.600;23.398;2023-07-20T11:51:29;75073.34;;;-138.15;23.70
20897;BME280;10608;42.600;23.398;2023-07-20T11:53:55;75142.75;;;-138.15;23.45
20897;BME280;10608;42.600;23.398;2023-07-20T11:56:22;75176.50;;;-138.15;24.00
20897;BME280;10608;42.600;23.398;2023-07-20T11:58:48;75247.91;;;-138.15;23.65
20897;BME280;10608;42.600;23.398;2023-07-20T12:01:14;75398.66;;;-138.15;23.78
20897;BME280;10608;42.600;23.398;2023-07-20T12:03:42;75559.34;;;-138.15;24.58
20897;BME280;10608;42.600;23.398;2023-07-20T12:06:11;75648.59;;;-138.15;24.80
20897;BME280;10608;42.600;23.398;2023-07-20T12:08:40;75545.44;;;-138.15;24.55
20897;BME280;10608;42.600;23.398;2023-07-20T12:11:06;75648.59;;;-138.15;24.90
20897;BME280;10608;42.600;23.398;2023-07-20T12:13:50;75807.31;;;-138.15;25.00
20897;BME280;10608;42.600;23.398;2023-07-20T12:16:16;75674.41;;;-138.15;25.63
20897;BME280;10608;42.600;23.398;2023-07-20T12:18:45;75614.88;;;-138.15;24.78
20897;BME280;10608;42.600;23.398;2023-07-20T12:21:11;75458.16;;;-138.15;25.23
20897;BME280;10608;42.600;23.398;2023-07-20T12:23:41;75370.88;;;-138.15;25.54
20897;BME280;10608;42.600;23.398;2023-07-20T12:26:08;75430.41;;;-138.15;23.40
20897;BME280;10608;42.600;23.398;2023-07-20T12:28:38;75505.78;;;-138.15;22.88
20897;BME280;10608;42.600;23.398;2023-07-20T12:31:05;75422.47;;;-138.15;22.90
20897;BME280;10608;42.600;23.398;2023-07-20T12:33:31;75358.97;;;-138.15;23.10
20897;BME280;10608;42.600;23.398;2023-07-20T12:35:57;75226.06;;;-138.15;23.33
20897;BME280;10608;42.600;23.398;2023-07-20T12:38:24;75358.97;;;-138.15;22.60
20897;BME280;10608;42.600;23.398;2023-07-20T12:40:49;75349.06;;;-138.15;22.97
20897;BME280;10608;42.600;23.398;2023-07-20T12:43:15;75319.31;;;-138.15;22.12
20897;BME280;10608;42.600;23.398;2023-07-20T12:45:40;75434.38;;;-138.15;22.46
20897;BME280;10608;42.600;23.398;2023-07-20T12:48:06;75559.34;;;-138.15;22.40
20897;BME280;10608;42.600;23.398;2023-07-20T12:50:32;75481.97;;;-138.15;22.92